sensor_id;sensor_type;location;lat;lon;timestamp;pressure;altitude;pressure_sealevel;temperature;humidity
6218;BME280;3142;48.206;11.550;2022-08-11T00:01:10;96158.34;;;22.22;43.88
6218;BME280;3142;48.206;11.550;2022-08-11T00:03:43;96155.94;;;22.25;43.63
6218;BME280;3142;48.206;11.550;2022-08-11T00:06:14;96151.41;;;22.26;43.66
6218;BME280;3142;48.206;11.550;2022-08-11T00:08:43;96147.16;;;22.25;43.84
6218;BME280;3142;48.206;11.550;2022-08-11T00:11:14;96150.59;;;22.25;43.67
6218;BME280;3142;48.206;11.550;2022-08-11T00:13:43;96157.00;;;22.24;43.84
6218;BME280;3142;48.206;11.550;2022-08-11T00:16:12;96151.63;;;22.14;43.97
6218;BME280;3142;48.206;11.550;2022-08-11T00:18:41;96152.44;;;22.14;44.04
6218;BME280;3142;48.206;11.550;2022-08-11T00:21:10;96151.09;;;22.12;44.29
6218;BME280;3142;48.206;11.550;2022-08-11T00:23:43;96155.91;;;22.10;44.06
6218;BME280;3142;48.206;11.550;2022-08-11T00:26:12;96149.50;;;22.11;44.17
6218;BME280;3142;48.206;11.550;2022-08-11T00:28:39;96158.28;;;22.11;44.15
6218;BME280;3142;48.206;11.550;2022-08-11T00:31:10;96149.22;;;22.07;44.22
6218;BME280;3142;48.206;11.550;2022-08-11T00:33:38;96156.88;;;22.04;44.32
6218;BME280;3142;48.206;11.550;2022-08-11T00:36:05;96155.00;;;21.94;44.56
6218;BME280;3142;48.206;11.550;2022-08-11T00:38:36;96153.13;;;21.95;44.42
6218;BME280;3142;48.206;11.550;2022-08-11T00:41:13;96147.81;;;21.95;44.57
6218;BME280;3142;48.206;11.550;2022-08-11T00:43:50;96152.84;;;21.91;44.53
6218;BME280;3142;48.206;11.550;2022-08-11T00:46:33;96146.16;;;21.88;44.67
6218;BME280;3142;48.206;11.550;2022-08-11T00:49:10;96151.22;;;21.85;44.76
6218;BME280;3142;48.206;11.550;2022-08-11T00:51:58;96152.50;;;21.77;44.91
6218;BME280;3142;48.206;11.550;2022-08-11T00:57:52;96145.09;;;21.79;45.18
6218;BME280;3142;48.206;11.550;2022-08-11T01:00:23;96139.69;;;21.69;45.21
6218;BME280;3142;48.206;11.550;2022-08-11T01:03:17;96139.91;;;21.63;45.26
6218;BME280;3142;48.206;11.550;2022-08-11T01:05:59;96139.63;;;21.59;45.45
6218;BME280;3142;48.206;11.550;2022-08-11T01:12:04;96141.97;;;21.50;45.42
6218;BME280;3142;48.206;11.550;2022-08-11T01:27:10;96141.81;;;20.93;46.92
6218;BME280;3142;48.206;11.550;2022-08-11T01:30:09;96140.66;;;21.16;46.83
6218;BME280;3142;48.206;11.550;2022-08-11T01:39:16;96136.44;;;21.20;46.93
6218;BME280;3142;48.206;11.550;2022-08-11T01:42:03;96144.31;;;21.05;47.10
6218;BME280;3142;48.206;11.550;2022-08-11T01:45:05;96141.91;;;21.03;47.04
6218;BME280;3142;48.206;11.550;2022-08-11T01:47:41;96140.03;;;21.04;47.28
6218;BME280;3142;48.206;11.550;2022-08-11T01:50:22;96135.06;;;21.12;47.13
6218;BME280;3142;48.206;11.550;2022-08-11T01:53:03;96143.06;;;21.12;47.02
6218;BME280;3142;48.206;11.550;2022-08-11T01:55:39;96141.75;;;21.20;46.84
6218;BME280;3142;48.206;11.550;2022-08-11T01:58:15;96132.69;;;21.16;46.76
6218;BME280;3142;48.206;11.550;2022-08-11T02:00:51;96135.69;;;21.24;47.04
6218;BME280;3142;48.206;11.550;2022-08-11T02:03:24;96134.31;;;21.22;47.02
6218;BME280;3142;48.206;11.550;2022-08-11T02:05:59;96137.78;;;21.22;46.95
6218;BME280;3142;48.206;11.550;2022-08-11T02:08:54;96140.38;;;21.12;47.20
6218;BME280;3142;48.206;11.550;2022-08-11T02:11:26;96137.09;;;21.00;47.45
6218;BME280;3142;48.206;11.550;2022-08-11T02:14:01;96127.78;;;20.97;47.42
6218;BME280;3142;48.206;11.550;2022-08-11T02:16:39;96129.16;;;21.05;47.43
6218;BME280;3142;48.206;11.550;2022-08-11T02:19:21;96129.63;;;20.97;47.66
6218;BME280;3142;48.206;11.550;2022-08-11T02:22:21;96126.91;;;20.92;47.63
6218;BME280;3142;48.206;11.550;2022-08-11T02:25:10;96124.50;;;20.90;47.74
6218;BME280;3142;48.206;11.550;2022-08-11T02:27:58;96128.22;;;20.89;47.91
6218;BME280;3142;48.206;11.550;2022-08-11T02:30:31;96126.38;;;20.90;47.49
6218;BME280;3142;48.206;11.550;2022-08-11T02:33:11;96122.28;;;20.77;47.71
6218;BME280;3142;48.206;11.550;2022-08-11T02:35:56;96119.09;;;20.80;47.68
6218;BME280;3142;48.206;11.550;2022-08-11T02:38:29;96118.56;;;20.78;47.66
6218;BME280;3142;48.206;11.550;2022-08-11T02:41:07;96117.75;;;20.78;47.81
6218;BME280;3142;48.206;11.550;2022-08-11T02:44:07;96112.16;;;20.74;48.18
6218;BME280;3142;48.206;11.550;2022-08-11T02:46:46;96119.44;;;20.57;48.19
6218;BME280;3142;48.206;11.550;2022-08-11T02:49:27;96121.63;;;20.65;48.45
6218;BME280;3142;48.206;11.550;2022-08-11T02:52:22;96112.88;;;20.69;48.13
6218;BME280;3142;48.206;11.550;2022-08-11T02:55:02;96117.72;;;20.73;48.19
6218;BME280;3142;48.206;11.550;2022-08-11T02:57:40;96117.66;;;20.67;48.35
6218;BME280;3142;48.206;11.550;2022-08-11T03:00:10;96116.38;;;20.70;48.34
6218;BME280;3142;48.206;11.550;2022-08-11T03:02:57;96115.25;;;20.66;48.25
6218;BME280;3142;48.206;11.550;2022-08-11T03:05:33;96119.03;;;20.70;48.36
6218;BME280;3142;48.206;11.550;2022-08-11T03:08:23;96118.47;;;20.68;48.45
6218;BME280;3142;48.206;11.550;2022-08-11T03:11:02;96120.28;;;20.62;48.39
6218;BME280;3142;48.206;11.550;2022-08-11T03:13:58;96110.44;;;20.63;48.87
6218;BME280;3142;48.206;11.550;2022-08-11T03:16:51;96122.19;;;20.67;48.32
6218;BME280;3142;48.206;11.550;2022-08-11T03:19:28;96116.59;;;20.68;48.83
6218;BME280;3142;48.206;11.550;2022-08-11T03:22:04;96114.75;;;20.69;48.29
6218;BME280;3142;48.206;11.550;2022-08-11T03:24:42;96115.00;;;20.67;48.53
6218;BME280;3142;48.206;11.550;2022-08-11T03:27:25;96109.91;;;20.61;48.82
6218;BME280;3142;48.206;11.550;2022-08-11T03:30:04;96111.22;;;20.58;48.89
6218;BME280;3142;48.206;11.550;2022-08-11T03:32:36;96113.00;;;20.53;49.25
6218;BME280;3142;48.206;11.550;2022-08-11T03:35:04;96113.28;;;20.51;48.65
6218;BME280;3142;48.206;11.550;2022-08-11T03:37:40;96113.53;;;20.50;48.68
6218;BME280;3142;48.206;11.550;2022-08-11T03:40:42;96115.25;;;20.39;49.53
6218;BME280;3142;48.206;11.550;2022-08-11T03:43:44;96117.66;;;20.40;49.17
6218;BME280;3142;48.206;11.550;2022-08-11T03:46:20;96117.34;;;20.37;49.10
6218;BME280;3142;48.206;11.550;2022-08-11T03:48:58;96116.56;;;20.36;49.37
6218;BME280;3142;48.206;11.550;2022-08-11T03:51:31;96116.25;;;20.33;49.46
6218;BME280;3142;48.206;11.550;2022-08-11T03:54:11;96124.16;;;20.28;49.26
6218;BME280;3142;48.206;11.550;2022-08-11T03:57:04;96116.41;;;20.21;49.92
6218;BME280;3142;48.206;11.550;2022-08-11T04:09:12;96114.66;;;20.32;49.60
6218;BME280;3142;48.206;11.550;2022-08-11T04:12:13;96119.97;;;20.32;50.00
6218;BME280;3142;48.206;11.550;2022-08-11T04:14:59;96118.84;;;20.28;50.01
6218;BME280;3142;48.206;11.550;2022-08-11T04:18:16;96114.28;;;20.23;50.39
6218;BME280;3142;48.206;11.550;2022-08-11T04:30:05;96115.84;;;20.19;50.35
6218;BME280;3142;48.206;11.550;2022-08-11T04:33:02;96111.34;;;20.20;50.18
6218;BME280;3142;48.206;11.550;2022-08-11T04:35:40;96116.41;;;20.21;50.33
6218;BME280;3142;48.206;11.550;2022-08-11T04:38:42;96116.28;;;20.11;50.73
6218;BME280;3142;48.206;11.550;2022-08-11T04:41:23;96114.94;;;20.08;50.66
6218;BME280;3142;48.206;11.550;2022-08-11T04:44:26;96120.88;;;20.16;50.67
6218;BME280;3142;48.206;11.550;2022-08-11T04:47:12;96116.59;;;20.15;50.78
6218;BME280;3142;48.206;11.550;2022-08-11T04:50:16;96124.63;;;20.20;50.33
6218;BME280;3142;48.206;11.550;2022-08-11T04:53:26;96123.03;;;20.19;50.80
6218;BME280;3142;48.206;11.550;2022-08-11T04:56:14;96119.59;;;20.23;50.33
6218;BME280;3142;48.206;11.550;2022-08-11T04:59:12;96125.47;;;20.25;50.26
6218;BME280;3142;48.206;11.550;2022-08-11T05:02:47;96122.00;;;20.25;50.77
6218;BME280;3142;48.206;11.550;2022-08-11T05:05:22;96126.53;;;20.24;50.81
6218;BME280;3142;48.206;11.550;2022-08-11T05:08:22;96129.25;;;20.29;50.68
6218;BME280;3142;48.206;11.550;2022-08-11T05:11:25;96130.06;;;20.30;50.64
6218;BME280;3142;48.206;11.550;2022-08-11T05:14:17;96132.47;;;20.31;50.62
6218;BME280;3142;48.206;11.550;2022-08-11T05:17:10;96129.47;;;20.28;50.80
6218;BME280;3142;48.206;11.550;2022-08-11T05:19:58;96137.22;;;20.29;50.61
6218;BME280;3142;48.206;11.550;2022-08-11T05:22:46;96139.81;;;20.24;50.35
6218;BME280;3142;48.206;11.550;2022-08-11T05:25:33;96132.59;;;20.20;50.88
6218;BME280;3142;48.206;11.550;2022-08-11T05:28:26;96145.69;;;20.26;50.82
6218;BME280;3142;48.206;11.550;2022-08-11T05:31:14;96136.66;;;20.27;50.53
6218;BME280;3142;48.206;11.550;2022-08-11T05:34:02;96130.44;;;20.17;50.92
6218;BME280;3142;48.206;11.550;2022-08-11T05:36:54;96138.31;;;20.06;51.21
6218;BME280;3142;48.206;11.550;2022-08-11T05:39:25;96133.06;;;19.90;52.29
6218;BME280;3142;48.206;11.550;2022-08-11T05:42:11;96139.03;;;19.80;52.26
6218;BME280;3142;48.206;11.550;2022-08-11T05:45:10;96139.66;;;19.87;52.48
6218;BME280;3142;48.206;11.550;2022-08-11T05:47:55;96134.72;;;19.96;51.97
6218;BME280;3142;48.206;11.550;2022-08-11T05:50:40;96139.19;;;19.90;52.20
6218;BME280;3142;48.206;11.550;2022-08-11T05:53:27;96137.00;;;20.09;52.03
6218;BME280;3142;48.206;11.550;2022-08-11T05:56:11;96139.53;;;20.21;51.34
6218;BME280;3142;48.206;11.550;2022-08-11T05:58:47;96136.25;;;20.13;51.56
6218;BME280;3142;48.206;11.550;2022-08-11T06:01:21;96139.94;;;20.12;51.82
6218;BME280;3142;48.206;11.550;2022-08-11T06:03:50;96135.63;;;19.85;52.20
6218;BME280;3142;48.206;11.550;2022-08-11T06:06:35;96136.00;;;19.71;52.47
6218;BME280;3142;48.206;11.550;2022-08-11T06:09:06;96134.66;;;19.69;53.11
6218;BME280;3142;48.206;11.550;2022-08-11T06:11:37;96142.19;;;19.77;53.10
6218;BME280;3142;48.206;11.550;2022-08-11T06:14:05;96132.25;;;19.67;52.39
6218;BME280;3142;48.206;11.550;2022-08-11T06:16:32;96133.34;;;19.71;53.05
6218;BME280;3142;48.206;11.550;2022-08-11T06:19:00;96135.69;;;19.68;53.21
6218;BME280;3142;48.206;11.550;2022-08-11T06:21:26;96132.19;;;19.84;52.76
6218;BME280;3142;48.206;11.550;2022-08-11T06:23:53;96131.69;;;19.87;52.73
6218;BME280;3142;48.206;11.550;2022-08-11T06:26:22;96125.69;;;19.97;52.25
6218;BME280;3142;48.206;11.550;2022-08-11T06:28:49;96128.84;;;20.16;52.34
6218;BME280;3142;48.206;11.550;2022-08-11T06:31:19;96137.13;;;19.97;52.50
6218;BME280;3142;48.206;11.550;2022-08-11T06:33:54;96140.31;;;19.99;52.82
6218;BME280;3142;48.206;11.550;2022-08-11T06:36:26;96137.13;;;20.19;52.21
6218;BME280;3142;48.206;11.550;2022-08-11T06:39:02;96138.88;;;20.35;52.25
6218;BME280;3142;48.206;11.550;2022-08-11T06:41:39;96145.44;;;20.28;52.12
6218;BME280;3142;48.206;11.550;2022-08-11T06:44:16;96148.03;;;20.01;52.50
6218;BME280;3142;48.206;11.550;2022-08-11T06:46:49;96139.47;;;20.16;52.57
6218;BME280;3142;48.206;11.550;2022-08-11T06:49:18;96150.53;;;20.29;52.74
6218;BME280;3142;48.206;11.550;2022-08-11T06:52:05;96147.25;;;20.22;52.49
6218;BME280;3142;48.206;11.550;2022-08-11T06:54:34;96146.06;;;20.13;52.44
6218;BME280;3142;48.206;11.550;2022-08-11T06:57:04;96146.78;;;20.03;52.73
6218;BME280;3142;48.206;11.550;2022-08-11T06:59:49;96147.50;;;19.99;53.16
6218;BME280;3142;48.206;11.550;2022-08-11T07:02:37;96143.91;;;20.10;53.17
6218;BME280;3142;48.206;11.550;2022-08-11T07:05:13;96153.41;;;20.28;53.11
6218;BME280;3142;48.206;11.550;2022-08-11T07:08:14;96148.41;;;20.31;52.59
6218;BME280;3142;48.206;11.550;2022-08-11T07:11:31;96145.19;;;20.51;52.81
6218;BME280;3142;48.206;11.550;2022-08-11T07:14:29;96140.38;;;20.80;52.53
6218;BME280;3142;48.206;11.550;2022-08-11T07:17:16;96137.63;;;20.97;51.84
6218;BME280;3142;48.206;11.550;2022-08-11T07:19:49;96133.91;;;21.03;51.50
6218;BME280;3142;48.206;11.550;2022-08-11T07:22:34;96132.56;;;21.38;50.87
6218;BME280;3142;48.206;11.550;2022-08-11T07:25:21;96132.78;;;21.73;49.75
6218;BME280;3142;48.206;11.550;2022-08-11T07:28:09;96133.78;;;22.14;48.50
6218;BME280;3142;48.206;11.550;2022-08-11T07:30:59;96125.31;;;22.38;47.46
6218;BME280;3142;48.206;11.550;2022-08-11T07:33:31;96122.69;;;22.63;46.77
6218;BME280;3142;48.206;11.550;2022-08-11T07:36:06;96125.13;;;22.95;46.24
6218;BME280;3142;48.206;11.550;2022-08-11T07:38:39;96118.44;;;23.13;45.52
6218;BME280;3142;48.206;11.550;2022-08-11T07:41:13;96123.22;;;23.26;45.29
6218;BME280;3142;48.206;11.550;2022-08-11T07:43:41;96121.31;;;23.47;44.37
6218;BME280;3142;48.206;11.550;2022-08-11T07:46:10;96124.47;;;23.75;44.33
6218;BME280;3142;48.206;11.550;2022-08-11T07:48:55;96125.81;;;23.77;43.75
6218;BME280;3142;48.206;11.550;2022-08-11T07:51:42;96127.16;;;23.70;44.07
6218;BME280;3142;48.206;11.550;2022-08-11T07:54:27;96115.78;;;24.13;43.84
6218;BME280;3142;48.206;11.550;2022-08-11T07:56:55;96121.94;;;24.58;42.89
6218;BME280;3142;48.206;11.550;2022-08-11T07:59:24;96122.88;;;24.77;42.30
6218;BME280;3142;48.206;11.550;2022-08-11T08:02:11;96121.59;;;25.09;41.89
6218;BME280;3142;48.206;11.550;2022-08-11T08:04:56;96119.66;;;25.44;41.99
6218;BME280;3142;48.206;11.550;2022-08-11T08:07:42;96108.91;;;25.73;41.23
6218;BME280;3142;48.206;11.550;2022-08-11T08:10:26;96118.53;;;25.97;40.96
6218;BME280;3142;48.206;11.550;2022-08-11T08:13:11;96122.47;;;26.05;39.98
6218;BME280;3142;48.206;11.550;2022-08-11T08:15:55;96113.06;;;26.08;40.13
6218;BME280;3142;48.206;11.550;2022-08-11T08:18:40;96110.50;;;26.16;40.15
6218;BME280;3142;48.206;11.550;2022-08-11T08:21:08;96114.16;;;26.25;39.75
6218;BME280;3142;48.206;11.550;2022-08-11T08:23:40;96112.59;;;26.43;39.35
6218;BME280;3142;48.206;11.550;2022-08-11T08:26:08;96122.75;;;26.46;39.35
6218;BME280;3142;48.206;11.550;2022-08-11T08:28:57;96112.63;;;26.19;38.83
6218;BME280;3142;48.206;11.550;2022-08-11T08:31:46;96118.81;;;26.20;39.61
6218;BME280;3142;48.206;11.550;2022-08-11T08:34:14;96126.47;;;26.26;39.12
6218;BME280;3142;48.206;11.550;2022-08-11T08:36:42;96124.25;;;25.91;38.90
6218;BME280;3142;48.206;11.550;2022-08-11T08:39:11;96130.13;;;25.93;38.98
6218;BME280;3142;48.206;11.550;2022-08-11T08:41:39;96126.47;;;26.08;39.67
6218;BME280;3142;48.206;11.550;2022-08-11T08:44:08;96125.44;;;26.46;38.65
6218;BME280;3142;48.206;11.550;2022-08-11T08:46:40;96125.38;;;26.51;38.37
6218;BME280;3142;48.206;11.550;2022-08-11T08:49:09;96123.59;;;26.79;38.43
6218;BME280;3142;48.206;11.550;2022-08-11T08:51:42;96118.69;;;26.68;37.85
6218;BME280;3142;48.206;11.550;2022-08-11T08:54:15;96123.59;;;26.79;38.22
6218;BME280;3142;48.206;11.550;2022-08-11T08:56:43;96127.09;;;27.31;37.70
6218;BME280;3142;48.206;11.550;2022-08-11T08:59:12;96128.25;;;27.71;36.94
6218;BME280;3142;48.206;11.550;2022-08-11T09:01:42;96122.25;;;28.02;36.67
6218;BME280;3142;48.206;11.550;2022-08-11T09:04:12;96116.63;;;28.53;35.83
6218;BME280;3142;48.206;11.550;2022-08-11T09:06:41;96118.13;;;28.46;35.46
6218;BME280;3142;48.206;11.550;2022-08-11T09:09:08;96117.28;;;28.59;35.00
6218;BME280;3142;48.206;11.550;2022-08-11T09:11:37;96118.66;;;28.70;34.98
6218;BME280;3142;48.206;11.550;2022-08-11T09:14:18;96129.91;;;28.72;35.26
6218;BME280;3142;48.206;11.550;2022-08-11T09:16:45;96125.09;;;28.47;34.30
6218;BME280;3142;48.206;11.550;2022-08-11T09:19:14;96124.66;;;28.67;34.71
6218;BME280;3142;48.206;11.550;2022-08-11T09:21:44;96127.75;;;28.60;34.41
6218;BME280;3142;48.206;11.550;2022-08-11T09:24:31;96130.53;;;28.33;35.03
6218;BME280;3142;48.206;11.550;2022-08-11T09:27:19;96118.50;;;28.89;34.62
6218;BME280;3142;48.206;11.550;2022-08-11T09:29:47;96126.53;;;29.03;33.24
6218;BME280;3142;48.206;11.550;2022-08-11T09:32:14;96129.03;;;28.63;34.06
6218;BME280;3142;48.206;11.550;2022-08-11T09:34:44;96126.63;;;28.25;34.66
6218;BME280;3142;48.206;11.550;2022-08-11T09:37:12;96137.94;;;28.50;35.00
6218;BME280;3142;48.206;11.550;2022-08-11T09:39:57;96133.56;;;28.90;33.21
6218;BME280;3142;48.206;11.550;2022-08-11T09:42:42;96129.59;;;28.87;33.76
6218;BME280;3142;48.206;11.550;2022-08-11T09:45:27;96128.41;;;29.02;33.22
6218;BME280;3142;48.206;11.550;2022-08-11T09:47:54;96134.28;;;29.27;33.23
6218;BME280;3142;48.206;11.550;2022-08-11T09:50:22;96127.31;;;29.48;32.40
6218;BME280;3142;48.206;11.550;2022-08-11T09:52:50;96120.19;;;29.52;32.11
6218;BME280;3142;48.206;11.550;2022-08-11T09:55:16;96119.97;;;29.79;31.66
6218;BME280;3142;48.206;11.550;2022-08-11T09:57:45;96125.22;;;29.76;31.64
6218;BME280;3142;48.206;11.550;2022-08-11T10:00:31;96124.78;;;30.00;30.97
6218;BME280;3142;48.206;11.550;2022-08-11T10:03:02;96112.88;;;30.01;30.60
6218;BME280;3142;48.206;11.550;2022-08-11T10:05:31;96107.41;;;30.23;31.03
6218;BME280;3142;48.206;11.550;2022-08-11T10:08:17;96108.56;;;30.31;30.64
6218;BME280;3142;48.206;11.550;2022-08-11T10:10:46;96115.44;;;30.63;30.07
6218;BME280;3142;48.206;11.550;2022-08-11T10:13:16;96099.69;;;30.74;29.79
6218;BME280;3142;48.206;11.550;2022-08-11T10:15:45;96110.97;;;30.84;29.58
6218;BME280;3142;48.206;11.550;2022-08-11T10:18:14;96106.50;;;30.80;29.96
6218;BME280;3142;48.206;11.550;2022-08-11T10:21:00;96092.69;;;30.81;29.66
6218;BME280;3142;48.206;11.550;2022-08-11T10:23:31;96102.56;;;30.86;29.33
6218;BME280;3142;48.206;11.550;2022-08-11T10:26:17;96099.66;;;30.56;28.96
6218;BME280;3142;48.206;11.550;2022-08-11T10:29:04;96097.13;;;30.77;29.25
6218;BME280;3142;48.206;11.550;2022-08-11T10:31:52;96092.69;;;30.64;29.08
6218;BME280;3142;48.206;11.550;2022-08-11T10:34:36;96108.72;;;30.52;29.91
6218;BME280;3142;48.206;11.550;2022-08-11T10:37:04;96098.06;;;30.38;29.31
6218;BME280;3142;48.206;11.550;2022-08-11T10:39:38;96091.13;;;30.72;29.23
6218;BME280;3142;48.206;11.550;2022-08-11T10:42:06;96090.09;;;31.19;28.91
6218;BME280;3142;48.206;11.550;2022-08-11T10:44:53;96082.50;;;31.60;28.31
6218;BME280;3142;48.206;11.550;2022-08-11T10:47:21;96071.38;;;31.52;28.08
6218;BME280;3142;48.206;11.550;2022-08-11T10:50:00;96079.59;;;31.65;28.24
6218;BME280;3142;48.206;11.550;2022-08-11T10:52:47;96077.06;;;31.60;28.37
6218;BME280;3142;48.206;11.550;2022-08-11T10:55:33;96079.13;;;31.07;28.85
6218;BME280;3142;48.206;11.550;2022-08-11T10:58:19;96079.78;;;31.60;28.81
6218;BME280;3142;48.206;11.550;2022-08-11T11:01:04;96067.06;;;30.96;28.46
6218;BME280;3142;48.206;11.550;2022-08-11T11:03:31;96064.22;;;30.58;28.86
6218;BME280;3142;48.206;11.550;2022-08-11T11:06:05;96068.81;;;30.40;29.47
6218;BME280;3142;48.206;11.550;2022-08-11T11:08:36;96066.16;;;30.75;29.38
6218;BME280;3142;48.206;11.550;2022-08-11T11:11:22;96068.72;;;31.35;28.65
6218;BME280;3142;48.206;11.550;2022-08-11T11:14:16;96071.47;;;31.73;27.95
6218;BME280;3142;48.206;11.550;2022-08-11T11:17:02;96063.72;;;31.93;27.54
6218;BME280;3142;48.206;11.550;2022-08-11T11:19:49;96066.03;;;32.32;27.23
6218;BME280;3142;48.206;11.550;2022-08-11T11:22:19;96074.22;;;32.45;27.06
6218;BME280;3142;48.206;11.550;2022-08-11T11:25:26;96069.31;;;31.49;27.36
6218;BME280;3142;48.206;11.550;2022-08-11T11:28:27;96073.56;;;31.21;27.85
6218;BME280;3142;48.206;11.550;2022-08-11T11:31:09;96064.88;;;30.46;28.29
6218;BME280;3142;48.206;11.550;2022-08-11T11:34:00;96064.06;;;30.37;28.98
6218;BME280;3142;48.206;11.550;2022-08-11T11:36:40;96059.47;;;30.72;28.99
6218;BME280;3142;48.206;11.550;2022-08-11T11:39:10;96056.56;;;30.94;28.86
6218;BME280;3142;48.206;11.550;2022-08-11T11:41:37;96057.75;;;31.40;28.64
6218;BME280;3142;48.206;11.550;2022-08-11T11:44:05;96059.28;;;31.50;27.95
6218;BME280;3142;48.206;11.550;2022-08-11T11:46:34;96059.28;;;30.94;27.86
6218;BME280;3142;48.206;11.550;2022-08-11T11:49:01;96060.88;;;30.78;28.58
6218;BME280;3142;48.206;11.550;2022-08-11T11:51:32;96062.97;;;30.47;28.52
6218;BME280;3142;48.206;11.550;2022-08-11T11:53:59;96051.38;;;30.72;28.78
6218;BME280;3142;48.206;11.550;2022-08-11T11:56:27;96053.59;;;31.43;28.15
6218;BME280;3142;48.206;11.550;2022-08-11T11:58:55;96049.13;;;31.85;27.51
6218;BME280;3142;48.206;11.550;2022-08-11T12:01:40;96058.28;;;31.93;27.75
6218;BME280;3142;48.206;11.550;2022-08-11T12:04:10;96050.31;;;31.67;28.07
6218;BME280;3142;48.206;11.550;2022-08-11T12:06:37;96047.72;;;31.41;28.31
6218;BME280;3142;48.206;11.550;2022-08-11T12:09:04;96046.22;;;30.96;28.49
6218;BME280;3142;48.206;11.550;2022-08-11T12:11:32;96047.22;;;30.49;29.52
6218;BME280;3142;48.206;11.550;2022-08-11T12:14:18;96043.41;;;30.50;29.59
6218;BME280;3142;48.206;11.550;2022-08-11T12:16:47;96043.22;;;30.12;29.00
6218;BME280;3142;48.206;11.550;2022-08-11T12:19:16;96038.25;;;29.96;30.21
6218;BME280;3142;48.206;11.550;2022-08-11T12:21:46;96039.06;;;29.97;29.65
6218;BME280;3142;48.206;11.550;2022-08-11T12:24:31;96032.75;;;29.53;30.07
6218;BME280;3142;48.206;11.550;2022-08-11T12:27:28;96030.56;;;29.33;30.35
6218;BME280;3142;48.206;11.550;2022-08-11T12:29:57;96032.56;;;29.18;30.14
6218;BME280;3142;48.206;11.550;2022-08-11T12:32:28;96026.19;;;28.83;31.32
6218;BME280;3142;48.206;11.550;2022-08-11T12:34:56;96011.94;;;28.83;31.45
6218;BME280;3142;48.206;11.550;2022-08-11T12:37:27;96025.88;;;29.07;31.57
6218;BME280;3142;48.206;11.550;2022-08-11T12:39:58;96018.13;;;29.14;30.97
6218;BME280;3142;48.206;11.550;2022-08-11T12:42:44;96018.53;;;29.30;31.09
6218;BME280;3142;48.206;11.550;2022-08-11T12:45:30;96016.81;;;29.34;31.65
6218;BME280;3142;48.206;11.550;2022-08-11T12:48:03;96018.72;;;29.42;31.64
6218;BME280;3142;48.206;11.550;2022-08-11T12:50:52;96001.09;;;29.36;31.29
6218;BME280;3142;48.206;11.550;2022-08-11T12:53:45;96011.69;;;29.24;30.66
6218;BME280;3142;48.206;11.550;2022-08-11T12:56:15;96007.25;;;29.19;30.88
6218;BME280;3142;48.206;11.550;2022-08-11T12:59:02;96006.03;;;29.43;30.93
6218;BME280;3142;48.206;11.550;2022-08-11T13:01:46;96004.19;;;29.52;31.08
6218;BME280;3142;48.206;11.550;2022-08-11T13:04:33;95997.16;;;29.42;31.08
6218;BME280;3142;48.206;11.550;2022-08-11T13:07:17;95995.34;;;29.20;30.66
6218;BME280;3142;48.206;11.550;2022-08-11T13:09:44;95999.00;;;29.25;31.14
6218;BME280;3142;48.206;11.550;2022-08-11T13:12:11;96000.78;;;29.38;30.68
6218;BME280;3142;48.206;11.550;2022-08-11T13:14:57;96003.97;;;29.40;30.41
6218;BME280;3142;48.206;11.550;2022-08-11T13:17:26;95991.13;;;29.45;30.53
6218;BME280;3142;48.206;11.550;2022-08-11T13:19:57;96002.50;;;29.73;31.21
6218;BME280;3142;48.206;11.550;2022-08-11T13:22:25;95988.72;;;29.92;30.91
6218;BME280;3142;48.206;11.550;2022-08-11T13:24:52;95987.13;;;30.00;30.48
6218;BME280;3142;48.206;11.550;2022-08-11T13:27:21;95993.16;;;29.97;29.98
6218;BME280;3142;48.206;11.550;2022-08-11T13:29:48;95988.09;;;30.04;30.23
6218;BME280;3142;48.206;11.550;2022-08-11T13:32:19;95987.53;;;29.59;29.52
6218;BME280;3142;48.206;11.550;2022-08-11T13:34:46;95980.50;;;29.40;30.27
6218;BME280;3142;48.206;11.550;2022-08-11T13:37:15;95973.34;;;29.44;30.72
6218;BME280;3142;48.206;11.550;2022-08-11T13:39:44;95986.28;;;29.56;30.36
6218;BME280;3142;48.206;11.550;2022-08-11T13:42:13;95980.97;;;29.42;30.12
6218;BME280;3142;48.206;11.550;2022-08-11T13:44:41;95973.00;;;29.29;30.32
6218;BME280;3142;48.206;11.550;2022-08-11T13:47:11;95977.75;;;29.23;30.58
6218;BME280;3142;48.206;11.550;2022-08-11T13:49:39;95974.88;;;29.19;30.33
6218;BME280;3142;48.206;11.550;2022-08-11T13:52:09;95974.78;;;28.94;30.15
6218;BME280;3142;48.206;11.550;2022-08-11T13:54:40;95968.44;;;28.98;30.67
6218;BME280;3142;48.206;11.550;2022-08-11T13:57:08;95965.97;;;29.10;30.94
6218;BME280;3142;48.206;11.550;2022-08-11T13:59:37;95963.28;;;29.19;30.94
6218;BME280;3142;48.206;11.550;2022-08-11T14:02:06;95970.31;;;29.29;30.72
6218;BME280;3142;48.206;11.550;2022-08-11T14:04:38;95964.06;;;29.11;30.23
6218;BME280;3142;48.206;11.550;2022-08-11T14:07:08;95972.00;;;29.07;30.50
6218;BME280;3142;48.206;11.550;2022-08-11T14:09:41;95967.44;;;29.25;29.60
6218;BME280;3142;48.206;11.550;2022-08-11T14:12:12;95959.38;;;29.34;29.55
6218;BME280;3142;48.206;11.550;2022-08-11T14:15:00;95963.47;;;29.31;29.85
6218;BME280;3142;48.206;11.550;2022-08-11T14:17:29;95960.94;;;29.26;29.87
6218;BME280;3142;48.206;11.550;2022-08-11T14:19:57;95969.78;;;29.18;29.79
6218;BME280;3142;48.206;11.550;2022-08-11T14:22:26;95953.75;;;28.82;29.27
6218;BME280;3142;48.206;11.550;2022-08-11T14:24:54;95954.56;;;28.51;29.30
6218;BME280;3142;48.206;11.550;2022-08-11T14:27:23;95955.69;;;28.59;30.68
6218;BME280;3142;48.206;11.550;2022-08-11T14:29:56;95968.13;;;28.69;30.69
6218;BME280;3142;48.206;11.550;2022-08-11T14:32:23;95962.41;;;28.70;30.49
6218;BME280;3142;48.206;11.550;2022-08-11T14:34:51;95952.66;;;28.83;30.78
6218;BME280;3142;48.206;11.550;2022-08-11T14:37:20;95955.13;;;28.93;30.41
6218;BME280;3142;48.206;11.550;2022-08-11T14:39:50;95956.41;;;28.96;29.93
6218;BME280;3142;48.206;11.550;2022-08-11T14:42:20;95950.00;;;28.91;29.75
6218;BME280;3142;48.206;11.550;2022-08-11T14:45:06;95949.91;;;28.97;30.33
6218;BME280;3142;48.206;11.550;2022-08-11T14:47:57;95953.69;;;28.65;29.77
6218;BME280;3142;48.206;11.550;2022-08-11T14:50:27;95955.16;;;28.48;30.22
6218;BME280;3142;48.206;11.550;2022-08-11T14:52:55;95951.25;;;28.54;30.16